Time;durP1;ratioP1;P1;durP2;ratioP2;P2;SDS_P1;SDS_P2;PMS_P1;PMS_P2;Temp;Humidity;BMP_temperature;BMP_pressure;BME280_temperature;BME280_humidity;BME280_pressure;Samples;Min_cycle;Max_cycle;Signal;HPM_P1;HPM_P2
2021/10/02 00:02:18;;;;;;;9.90;4.85;;;;;;;11.18;78.27;96368.25;4948772;28;20050;-75
2021/10/02 00:35:12;;;;;;;6.95;3.92;;;;;;;11.10;79.02;96366.31;4965912;28;20127;-73
2021/10/02 00:45:55;;;;;;;7.60;4.20;;;;;;;11.12;80.13;96364.09;4985384;28;20179;-73
2021/10/02 00:48:22;;;;;;;6.13;4.10;;;;;;;11.18;80.31;96368.25;4984539;28;20050;-73
2021/10/02 00:50:49;;;;;;;7.72;3.95;;;;;;;11.20;80.06;96371.44;4985288;28;20054;-73
2021/10/02 00:53:16;;;;;;;5.50;4.10;;;;;;;11.26;79.17;96374.00;4984667;28;20088;-74
2021/10/02 00:55:42;;;;;;;7.70;4.78;;;;;;;11.28;79.34;96369.06;4985138;28;20042;-74
2021/10/02 00:58:11;;;;;;;5.95;3.90;;;;;;;11.28;79.42;96372.59;4984829;28;20050;-73
2021/10/02 01:00:45;;;;;;;5.20;4.20;;;;;;;11.27;79.69;96370.16;4984859;28;20424;-73
2021/10/02 01:03:22;;;;;;;10.65;4.53;;;;;;;11.19;78.92;96369.06;4985209;28;20402;-73
2021/10/02 01:05:58;;;;;;;6.10;4.00;;;;;;;11.22;79.00;96369.22;4983326;28;20428;-73
2021/10/02 01:08:36;;;;;;;6.03;3.90;;;;;;;11.22;78.70;96362.94;4985213;28;20175;-73
2021/10/02 01:11:14;;;;;;;5.53;3.53;;;;;;;11.18;78.41;96362.81;4984324;28;20058;-72
2021/10/02 01:13:49;;;;;;;7.18;3.97;;;;;;;11.11;78.84;96359.75;4985023;28;20050;-74
2021/10/02 01:16:21;;;;;;;5.82;3.70;;;;;;;11.11;79.09;96362.47;4983212;28;20051;-75
2021/10/02 01:18:55;;;;;;;8.90;5.25;;;;;;;11.07;78.95;96361.53;4984787;28;20050;-74
2021/10/02 01:21:40;;;;;;;5.60;3.72;;;;;;;11.01;79.23;96360.06;4985279;28;20050;-73
2021/10/02 01:24:24;;;;;;;5.22;3.60;;;;;;;11.00;79.66;96361.19;4983972;28;20116;-73
2021/10/02 01:27:17;;;;;;;5.63;4.05;;;;;;;11.00;79.69;96355.72;4985158;28;20731;-73
2021/10/02 01:29:47;;;;;;;5.45;3.92;;;;;;;10.95;79.91;96350.44;4985184;28;20038;-73
2021/10/02 01:32:18;;;;;;;7.22;4.30;;;;;;;10.95;79.87;96347.72;4984023;28;20051;-73
2021/10/02 01:34:57;;;;;;;5.70;4.03;;;;;;;10.93;79.89;96358.16;4985520;28;20057;-73
2021/10/02 01:37:35;;;;;;;7.00;4.22;;;;;;;10.90;79.68;96356.03;4984069;28;20141;-73
2021/10/02 01:48:21;;;;;;;5.40;3.80;;;;;;;10.92;80.07;96343.72;4984137;28;20511;-74
2021/10/02 01:50:50;;;;;;;6.43;3.50;;;;;;;10.91;80.02;96347.56;4981099;28;20065;-73
2021/10/02 01:53:17;;;;;;;5.50;4.03;;;;;;;10.92;79.91;96342.94;4984329;28;20096;-74
2021/10/02 01:55:45;;;;;;;6.10;3.63;;;;;;;10.95;79.86;96347.72;4984131;28;20039;-73
2021/10/02 01:58:14;;;;;;;6.30;3.85;;;;;;;10.93;79.85;96344.53;4983927;28;20057;-72
2021/10/02 02:00:44;;;;;;;5.82;3.60;;;;;;;10.95;80.19;96345.78;4984721;28;20058;-73
2021/10/02 02:03:14;;;;;;;5.35;3.80;;;;;;;10.96;79.83;96343.88;4984569;28;20156;-73
2021/10/02 02:05:42;;;;;;;5.65;3.78;;;;;;;10.97;80.00;96342.78;4988223;28;20050;-74
2021/10/02 02:08:11;;;;;;;5.22;3.53;;;;;;;10.98;79.78;96342.44;4986905;28;20058;-73
2021/10/02 02:10:40;;;;;;;6.22;3.58;;;;;;;10.99;79.31;96337.78;4988484;28;20046;-73
2021/10/02 02:13:08;;;;;;;6.47;3.65;;;;;;;10.98;79.39;96336.19;4986732;28;20046;-73
2021/10/02 02:15:35;;;;;;;5.22;3.60;;;;;;;10.99;79.45;96337.78;4987784;28;20050;-73
2021/10/02 02:18:07;;;;;;;5.40;3.83;;;;;;;11.01;79.36;96342.91;4986854;28;20054;-72
2021/10/02 02:20:37;;;;;;;6.75;4.13;;;;;;;11.02;79.60;96339.88;4987447;28;20058;-74
2021/10/02 02:23:05;;;;;;;7.80;3.85;;;;;;;11.01;79.23;96334.72;4987351;28;20057;-73
2021/10/02 02:25:32;;;;;;;5.45;3.80;;;;;;;11.02;79.63;96334.44;4986977;28;20054;-73
2021/10/02 02:27:59;;;;;;;4.72;3.58;;;;;;;11.04;79.51;96337.63;4987291;28;20058;-74
2021/10/02 02:30:26;;;;;;;7.55;4.00;;;;;;;11.06;79.22;96327.19;4985581;28;20050;-74
2021/10/02 02:32:53;;;;;;;6.05;4.32;;;;;;;11.05;79.27;96331.06;4987569;28;20054;-73
2021/10/02 02:35:23;;;;;;;5.82;3.80;;;;;;;11.11;79.54;96334.41;4986194;28;20050;-74
2021/10/02 02:37:51;;;;;;;7.05;4.15;;;;;;;11.12;79.52;96334.13;4987630;28;20053;-73
2021/10/02 02:40:17;;;;;;;5.43;3.47;;;;;;;11.14;79.53;96331.84;4986518;28;20409;-74
2021/10/02 02:42:44;;;;;;;5.43;3.70;;;;;;;11.15;79.87;96330.72;4986944;28;20046;-74
2021/10/02 02:45:13;;;;;;;5.47;3.85;;;;;;;11.14;79.39;96334.56;4986488;28;20578;-73
2021/10/02 02:47:47;;;;;;;7.55;4.32;;;;;;;11.19;79.79;96334.41;4986731;28;20050;-74
2021/10/02 02:50:19;;;;;;;5.07;3.60;;;;;;;11.20;79.34;96338.75;4984099;28;20061;-74
2021/10/02 02:52:55;;;;;;;5.13;3.50;;;;;;;11.18;79.18;96335.53;4986869;28;20051;-74
2021/10/02 02:55:26;;;;;;;4.40;3.60;;;;;;;11.14;79.29;96334.56;4986627;28;22715;-73
2021/10/02 02:57:56;;;;;;;5.68;3.53;;;;;;;11.13;79.41;96338.44;4987070;28;20509;-74
2021/10/02 03:00:24;;;;;;;6.13;3.67;;;;;;;11.15;79.15;96340.81;4986412;28;20054;-76
2021/10/02 03:02:53;;;;;;;6.07;3.53;;;;;;;11.11;79.28;96340.66;4987455;28;20054;-74
2021/10/02 03:05:21;;;;;;;5.28;3.75;;;;;;;11.11;78.82;96335.22;4986270;28;20119;-74
2021/10/02 03:07:55;;;;;;;5.85;3.35;;;;;;;11.09;78.84;96332.00;4987500;28;20066;-74
2021/10/02 03:10:22;;;;;;;6.68;3.53;;;;;;;11.07;79.04;96338.94;4985708;28;20050;-74
2021/10/02 03:12:50;;;;;;;7.30;3.35;;;;;;;11.03;79.48;96333.31;4987467;28;20070;-73
2021/10/02 03:15:17;;;;;;;5.70;3.42;;;;;;;11.02;79.46;96331.72;4985895;28;20403;-73
2021/10/02 03:17:46;;;;;;;5.55;3.65;;;;;;;11.06;79.52;96334.56;4987225;28;20042;-73
2021/10/02 03:20:14;;;;;;;5.10;3.28;;;;;;;11.04;79.67;96334.91;4985741;28;20046;-74
2021/10/02 03:22:41;;;;;;;5.65;3.67;;;;;;;11.06;79.82;96332.66;4986689;28;20081;-75
2021/10/02 03:25:11;;;;;;;7.93;3.50;;;;;;;11.11;79.86;96335.22;4986259;28;20050;-73
2021/10/02 03:27:39;;;;;;;5.78;3.47;;;;;;;11.13;79.92;96332.97;4986502;28;20054;-74
2021/10/02 03:30:07;;;;;;;6.13;3.70;;;;;;;11.15;79.64;96329.94;4986552;28;20566;-74
2021/10/02 03:32:34;;;;;;;6.57;3.58;;;;;;;11.16;79.47;96321.41;4986055;28;20054;-74
2021/10/02 03:35:01;;;;;;;6.13;3.78;;;;;;;11.17;79.72;96320.31;4976844;28;20058;-74
2021/10/02 03:37:29;;;;;;;5.78;3.75;;;;;;;11.17;79.70;96317.59;4966495;28;20047;-74
2021/10/02 03:39:56;;;;;;;6.22;3.85;;;;;;;11.22;79.80;96322.88;4967191;28;20038;-74
2021/10/02 03:42:25;;;;;;;5.20;3.40;;;;;;;11.27;79.75;96313.72;4966427;28;20058;-74
2021/10/02 03:44:53;;;;;;;5.40;3.88;;;;;;;11.34;79.98;96321.41;4966808;28;20133;-76
2021/10/02 03:47:21;;;;;;;5.90;3.22;;;;;;;11.39;79.68;96315.78;4972552;28;20051;-75
2021/10/02 03:49:49;;;;;;;5.40;3.80;;;;;;;11.43;79.42;96323.00;4985813;28;20055;-74
2021/10/02 03:52:16;;;;;;;5.13;3.42;;;;;;;11.49;78.07;96324.44;4986314;28;20069;-74
2021/10/02 03:54:43;;;;;;;4.95;3.20;;;;;;;11.52;78.53;96327.63;4985723;28;20046;-73
2021/10/02 03:57:09;;;;;;;7.75;3.55;;;;;;;11.55;77.09;96332.44;4986428;28;20051;-73
2021/10/02 03:59:37;;;;;;;5.85;3.35;;;;;;;11.56;77.41;96323.94;4985704;28;20408;-73
2021/10/02 04:02:04;;;;;;;5.20;3.20;;;;;;;11.54;77.51;96320.75;4986096;28;20049;-74
2021/10/02 04:04:30;;;;;;;5.68;3.30;;;;;;;11.54;77.87;96309.81;4985648;28;20775;-74
2021/10/02 04:06:57;;;;;;;7.07;3.35;;;;;;;11.51;77.37;96315.91;4986216;28;20058;-76
2021/10/02 04:09:24;;;;;;;5.30;3.40;;;;;;;11.49;77.34;96312.72;4985585;28;20042;-74
2021/10/02 04:11:51;;;;;;;7.43;3.28;;;;;;;11.49;77.36;96307.28;4986684;28;20129;-74
2021/10/02 04:14:17;;;;;;;5.55;3.17;;;;;;;11.48;77.15;96301.03;4985871;28;20051;-74
2021/10/02 04:16:45;;;;;;;3.80;2.67;;;;;;;11.46;77.22;96302.47;4985543;28;20046;-74
2021/10/02 04:19:11;;;;;;;6.78;3.92;;;;;;;11.46;77.31;96302.47;4985220;28;20050;-74
2021/10/02 04:21:38;;;;;;;4.78;3.08;;;;;;;11.45;76.97;96300.88;4985421;28;20386;-74
2021/10/02 04:24:05;;;;;;;4.50;3.17;;;;;;;11.44;77.25;96302.00;4985985;28;20050;-73
2021/10/02 04:26:32;;;;;;;4.97;3.28;;;;;;;11.45;77.53;96303.59;4984833;28;20497;-74
2021/10/02 04:28:59;;;;;;;4.68;3.60;;;;;;;11.47;77.95;96298.59;4985984;28;20046;-75
2021/10/02 04:31:25;;;;;;;6.93;3.33;;;;;;;11.51;77.78;96299.56;4985314;28;20047;-75
2021/10/02 04:33:53;;;;;;;7.68;3.55;;;;;;;11.54;77.50;96293.47;4985844;28;20090;-74
2021/10/02 04:36:20;;;;;;;4.90;3.25;;;;;;;11.57;77.49;96303.72;4985586;28;20055;-74
2021/10/02 04:38:47;;;;;;;6.18;3.28;;;;;;;11.60;77.42;96303.06;4986062;28;20513;-74
2021/10/02 04:41:13;;;;;;;5.88;3.60;;;;;;;11.66;76.87;96301.75;4985860;28;20061;-75
2021/10/02 04:43:43;;;;;;;5.85;3.60;;;;;;;11.70;76.52;96307.38;4985022;28;20046;-74
2021/10/02 04:46:10;;;;;;;6.07;3.22;;;;;;;11.73;76.97;96304.78;4985408;28;20046;-74
2021/10/02 04:48:37;;;;;;;4.45;2.95;;;;;;;11.77;75.83;96311.19;4984376;28;20050;-74
2021/10/02 04:51:05;;;;;;;5.13;3.15;;;;;;;11.81;75.80;96321.47;4983276;28;20142;-73
2021/10/02 04:53:31;;;;;;;6.65;3.85;;;;;;;11.79;75.26;96315.50;4985384;28;20057;-74
2021/10/02 04:56:00;;;;;;;6.75;4.05;;;;;;;11.71;76.00;96320.69;4985471;28;20046;-74
2021/10/02 04:58:27;;;;;;;8.52;3.58;;;;;;;11.72;75.96;96322.28;4985225;28;20043;-74
2021/10/02 05:00:54;;;;;;;4.90;3.17;;;;;;;11.71;76.54;96320.69;4984909;28;20054;-74
2021/10/02 05:03:20;;;;;;;6.82;3.40;;;;;;;11.73;76.67;96321.13;4985103;28;20513;-74
2021/10/02 05:05:47;;;;;;;5.63;3.40;;;;;;;11.73;76.19;96329.31;4984699;28;20038;-75
2021/10/02 05:08:15;;;;;;;6.57;3.40;;;;;;;11.74;76.57;96325.50;4985346;28;20057;-74
2021/10/02 05:10:41;;;;;;;5.53;3.63;;;;;;;11.75;76.68;96327.09;4984277;28;20054;-73
2021/10/02 05:13:08;;;;;;;5.57;3.67;;;;;;;11.74;76.34;96330.13;4985138;28;20057;-73
2021/10/02 05:15:34;;;;;;;5.40;3.70;;;;;;;11.76;76.65;96328.69;4984949;28;20054;-74
2021/10/02 05:18:01;;;;;;;5.55;3.85;;;;;;;11.76;76.38;96331.41;4985215;28;20504;-74
2021/10/02 05:20:28;;;;;;;6.82;3.58;;;;;;;11.76;76.62;96334.16;4981582;28;20042;-74
2021/10/02 05:22:55;;;;;;;7.47;3.90;;;;;;;11.79;76.58;96337.34;4984923;28;20062;-74
2021/10/02 05:25:23;;;;;;;6.13;3.63;;;;;;;11.76;76.11;96338.81;4984657;28;20054;-74
2021/10/02 05:27:50;;;;;;;5.63;3.45;;;;;;;11.73;76.09;96340.25;4984644;28;20509;-75
2021/10/02 05:30:16;;;;;;;6.28;4.10;;;;;;;11.74;76.44;96341.88;4984825;28;20085;-74
2021/10/02 05:32:43;;;;;;;4.88;3.30;;;;;;;11.76;75.74;96346.97;4984087;28;20107;-73
2021/10/02 05:35:10;;;;;;;5.70;3.50;;;;;;;11.80;75.00;96339.75;4984771;28;20058;-75
2021/10/02 05:37:36;;;;;;;5.15;3.40;;;;;;;11.80;75.10;96349.84;4984444;28;20046;-75
2021/10/02 05:40:03;;;;;;;7.10;4.05;;;;;;;11.82;75.20;96347.63;4987347;28;20053;-76
2021/10/02 05:42:31;;;;;;;5.53;3.10;;;;;;;11.87;75.14;96350.19;4987644;28;20054;-75
2021/10/02 05:44:58;;;;;;;8.68;3.80;;;;;;;11.91;75.51;96351.16;4988269;28;20050;-75
2021/10/02 05:47:24;;;;;;;5.50;3.45;;;;;;;11.90;75.26;96357.72;4987865;28;20756;-75
2021/10/02 05:49:51;;;;;;;6.15;3.72;;;;;;;11.96;75.00;96359.16;4987192;28;20059;-75
2021/10/02 05:52:18;;;;;;;5.35;3.30;;;;;;;11.97;75.95;96352.56;4988070;28;20046;-75
2021/10/02 05:54:45;;;;;;;8.15;4.00;;;;;;;11.97;76.05;96360.75;4987356;28;20061;-75
2021/10/02 05:57:11;;;;;;;7.90;3.63;;;;;;;12.04;75.25;96366.50;4988001;28;20059;-75
2021/10/02 05:59:39;;;;;;;6.30;3.38;;;;;;;12.04;74.13;96361.03;4987088;28;20046;-74
2021/10/02 06:02:06;;;;;;;7.63;4.20;;;;;;;12.01;74.71;96362.50;4987691;28;20053;-75
2021/10/02 06:04:32;;;;;;;6.18;3.58;;;;;;;11.94;74.85;96361.41;4987347;28;20704;-75
2021/10/02 06:06:59;;;;;;;7.05;4.00;;;;;;;11.85;74.82;96357.88;4987753;28;20390;-75
2021/10/02 06:09:25;;;;;;;7.28;3.40;;;;;;;11.85;75.17;96352.44;4987049;28;20054;-75
2021/10/02 06:11:52;;;;;;;7.63;4.15;;;;;;;11.88;75.88;96352.59;4987359;28;20054;-75
2021/10/02 06:14:19;;;;;;;11.00;3.40;;;;;;;11.96;76.66;96350.97;4987605;28;20051;-75
2021/10/02 06:16:47;;;;;;;6.18;4.00;;;;;;;12.01;76.97;96357.03;4984914;28;20050;-74
2021/10/02 06:19:14;;;;;;;5.07;3.60;;;;;;;12.07;76.75;96365.84;4984697;28;20046;-75
2021/10/02 06:21:41;;;;;;;7.10;4.03;;;;;;;12.17;76.40;96365.50;4986662;28;20050;-76
2021/10/02 06:24:08;;;;;;;7.45;3.72;;;;;;;12.26;76.26;96368.97;4986822;28;20054;-76
2021/10/02 06:26:37;;;;;;;9.85;4.28;;;;;;;12.33;76.11;96367.69;4987051;28;20136;-75
2021/10/02 06:29:04;;;;;;;7.70;3.83;;;;;;;12.43;75.79;96383.69;4986975;28;20062;-76
2021/10/02 06:31:31;;;;;;;7.65;3.95;;;;;;;12.53;75.13;96377.84;4983204;28;20046;-76
2021/10/02 06:33:59;;;;;;;11.38;5.20;;;;;;;12.62;75.26;96370.38;4967070;28;20046;-77
2021/10/02 06:36:27;;;;;;;4.32;3.13;;;;;;;12.69;75.22;96378.88;4967132;28;20054;-76
2021/10/02 06:38:54;;;;;;;4.57;3.20;;;;;;;12.72;74.76;96375.47;4966985;28;20050;-75
2021/10/02 06:41:20;;;;;;;5.95;3.95;;;;;;;12.76;73.03;96379.16;4967231;28;20058;-76
2021/10/02 06:43:47;;;;;;;6.85;4.28;;;;;;;12.80;73.39;96382.03;4966975;28;20047;-76
2021/10/02 06:46:14;;;;;;;5.45;2.72;;;;;;;12.89;73.82;96381.94;4967275;28;20065;-76
2021/10/02 06:48:41;;;;;;;5.65;3.00;;;;;;;12.98;74.30;96377.22;4967517;28;20134;-75
2021/10/02 06:51:09;;;;;;;4.00;3.20;;;;;;;13.08;72.13;96376.84;4985855;28;20505;-75
2021/10/02 06:53:36;;;;;;;5.50;3.15;;;;;;;13.16;72.59;96378.72;4986661;28;20050;-75
2021/10/02 06:56:04;;;;;;;7.82;4.40;;;;;;;13.19;71.72;96388.19;4985770;28;20081;-75
2021/10/02 06:58:31;;;;;;;5.38;3.58;;;;;;;13.28;71.44;96391.69;4986904;28;20047;-76
2021/10/02 07:00:57;;;;;;;11.90;4.63;;;;;;;13.42;71.44;96391.41;4985898;28;20537;-76
2021/10/02 07:03:24;;;;;;;4.57;3.05;;;;;;;13.65;70.61;96389.09;4986648;28;20051;-75
2021/10/02 07:05:50;;;;;;;7.20;3.90;;;;;;;13.69;71.17;96396.31;4985697;28;20074;-75
2021/10/02 07:08:18;;;;;;;6.70;3.72;;;;;;;13.72;71.34;96381.13;4986709;28;20053;-75
2021/10/02 07:10:45;;;;;;;6.00;3.22;;;;;;;13.99;71.26;96376.97;4985302;28;20046;-75
2021/10/02 07:13:11;;;;;;;4.15;2.80;;;;;;;14.38;69.78;96378.28;4986636;28;20505;-74
2021/10/02 07:15:38;;;;;;;6.65;3.00;;;;;;;14.58;67.59;96376.63;4978646;28;20051;-74
2021/10/02 07:18:04;;;;;;;4.25;2.85;;;;;;;14.59;66.45;96372.72;4966902;28;20055;-74
2021/10/02 07:20:31;;;;;;;4.78;2.78;;;;;;;14.57;67.85;96375.81;4982312;28;20049;-75
2021/10/02 07:22:57;;;;;;;4.50;2.88;;;;;;;14.81;68.39;96375.00;4986798;28;20084;-75
2021/10/02 07:25:25;;;;;;;4.82;2.83;;;;;;;15.33;66.91;96379.69;4986370;28;20056;-75
2021/10/02 07:27:52;;;;;;;5.18;3.10;;;;;;;15.83;64.68;96383.88;4985950;28;20054;-76
2021/10/02 07:30:19;;;;;;;6.20;2.63;;;;;;;16.42;62.31;96385.78;4986085;28;20058;-74
2021/10/02 07:32:46;;;;;;;4.30;2.70;;;;;;;16.76;59.84;96383.50;4971298;28;20050;-75
2021/10/02 07:35:14;;;;;;;4.70;2.95;;;;;;;16.94;59.19;96383.91;4966381;28;20055;-75
2021/10/02 07:37:41;;;;;;;6.70;3.25;;;;;;;17.23;58.38;96379.84;4959387;28;20501;-75
2021/10/02 07:40:11;;;;;;;3.97;2.60;;;;;;;17.61;57.33;96378.25;4966260;28;20057;-74
2021/10/02 07:42:40;;;;;;;4.60;2.50;;;;;;;17.80;56.61;96370.03;4966974;28;20051;-76
2021/10/02 07:45:10;;;;;;;4.95;2.67;;;;;;;18.12;55.50;96381.63;4966033;28;20420;-75
2021/10/02 07:47:40;;;;;;;4.90;2.65;;;;;;;18.11;55.83;96376.47;4967367;28;20047;-74
2021/10/02 07:50:09;;;;;;;5.50;2.85;;;;;;;18.59;55.59;96365.88;4978267;28;20042;-74
2021/10/02 07:52:37;;;;;;;4.13;2.33;;;;;;;19.10;53.88;96373.75;4987125;28;20073;-74
2021/10/02 07:55:07;;;;;;;3.97;2.60;;;;;;;19.51;52.81;96372.72;4984775;28;20046;-74
2021/10/02 07:57:36;;;;;;;3.50;2.30;;;;;;;19.65;50.16;96371.38;4986563;28;20141;-75
2021/10/02 08:00:05;;;;;;;5.47;2.30;;;;;;;19.69;50.31;96366.69;4984670;28;20074;-74
2021/10/02 08:02:32;;;;;;;5.78;2.38;;;;;;;19.73;50.86;96373.03;4985027;28;20050;-76
2021/10/02 08:05:00;;;;;;;3.72;2.50;;;;;;;19.72;51.22;96374.19;4985766;28;20405;-75
2021/10/02 08:07:28;;;;;;;6.05;2.85;;;;;;;19.51;50.44;96372.72;4985964;28;20057;-77
2021/10/02 08:09:55;;;;;;;4.32;2.60;;;;;;;19.47;51.47;96371.09;4986155;28;20050;-76
2021/10/02 08:12:22;;;;;;;5.93;2.97;;;;;;;18.78;53.68;96368.56;4985201;28;20051;-76
2021/10/02 08:14:48;;;;;;;3.72;2.38;;;;;;;18.52;54.99;96367.34;4986456;28;20061;-76
2021/10/02 08:17:16;;;;;;;5.47;2.50;;;;;;;18.45;57.78;96358.97;4984904;28;20515;-76
2021/10/02 08:19:46;;;;;;;4.13;2.88;;;;;;;18.44;56.43;96359.34;4969546;28;20062;-77
2021/10/02 08:22:13;;;;;;;4.43;3.00;;;;;;;18.37;57.18;96353.69;4946128;28;20094;-75
2021/10/02 08:24:42;;;;;;;6.32;2.60;;;;;;;18.30;56.86;96354.38;4947493;28;20062;-75
2021/10/02 08:27:10;;;;;;;4.35;2.80;;;;;;;18.44;56.76;96360.13;4946526;28;20436;-75
2021/10/02 08:29:40;;;;;;;5.47;2.60;;;;;;;18.43;56.63;96358.53;4946925;28;20051;-76
2021/10/02 08:32:07;;;;;;;5.72;2.97;;;;;;;18.43;56.66;96347.50;4955483;28;20055;-74
2021/10/02 08:34:34;;;;;;;4.45;2.80;;;;;;;18.30;57.51;96353.56;4965935;28;20057;-76
2021/10/02 08:37:01;;;;;;;4.50;2.80;;;;;;;18.39;58.18;96352.16;4966813;28;20061;-76
2021/10/02 08:39:27;;;;;;;5.97;3.13;;;;;;;18.54;56.26;96355.97;4957560;28;20786;-76
2021/10/02 08:41:54;;;;;;;4.85;2.78;;;;;;;18.66;56.59;96352.19;4966487;28;20051;-76
2021/10/02 08:44:23;;;;;;;3.95;2.80;;;;;;;18.78;58.27;96352.00;4965329;28;20046;-76
2021/10/02 08:46:51;;;;;;;5.35;2.60;;;;;;;18.83;57.23;96337.09;4966104;28;20047;-76
2021/10/02 08:49:35;;;;;;;4.68;3.15;;;;;;;18.83;56.84;96335.13;4971126;28;20046;-76
2021/10/02 08:52:05;;;;;;;4.53;2.92;;;;;;;18.84;58.01;96333.97;4984759;28;20073;-73
2021/10/02 08:54:36;;;;;;;6.10;3.25;;;;;;;18.90;59.01;96323.44;4984706;28;20047;-75
2021/10/02 08:57:03;;;;;;;4.40;3.15;;;;;;;18.80;55.60;96324.88;4982963;28;20755;-75
2021/10/02 08:59:30;;;;;;;5.45;3.67;;;;;;;18.74;56.36;96318.88;4985965;28;20494;-76
2021/10/02 09:01:56;;;;;;;4.65;3.60;;;;;;;18.61;56.63;96324.94;4984503;28;20050;-76
2021/10/02 09:04:23;;;;;;;4.90;3.40;;;;;;;18.56;57.32;96322.50;4985416;28;20053;-76
2021/10/02 09:06:50;;;;;;;4.00;3.03;;;;;;;18.62;60.29;96321.00;4984586;28;20074;-75
2021/10/02 09:09:18;;;;;;;5.20;3.60;;;;;;;18.66;59.29;96310.81;4985009;28;20050;-76
2021/10/02 09:11:44;;;;;;;6.53;3.30;;;;;;;18.60;58.29;96304.03;4985063;28;20049;-75
2021/10/02 09:14:11;;;;;;;5.30;3.90;;;;;;;18.62;58.62;96305.25;4986526;28;20049;-75
2021/10/02 09:16:40;;;;;;;4.95;3.22;;;;;;;18.81;59.44;96304.38;4969132;28;20062;-76
2021/10/02 09:19:08;;;;;;;6.05;3.72;;;;;;;19.07;60.22;96308.28;4972511;28;20103;-76
2021/10/02 09:21:42;;;;;;;5.05;3.70;;;;;;;19.41;57.28;96309.88;4988297;28;20046;-76
2021/10/02 09:24:22;;;;;;;7.57;4.20;;;;;;;19.79;56.79;96310.75;4988263;28;20058;-75
2021/10/02 09:26:49;;;;;;;7.03;3.97;;;;;;;19.94;55.17;96306.97;4988635;28;20065;-75
2021/10/02 09:29:17;;;;;;;8.40;4.10;;;;;;;19.94;54.96;96295.09;4987859;28;20054;-76
2021/10/02 09:31:43;;;;;;;4.80;3.50;;;;;;;20.06;55.77;96297.59;4988280;28;20049;-76
2021/10/02 09:34:22;;;;;;;5.70;4.07;;;;;;;20.12;56.25;96289.75;4987899;28;20050;-76
2021/10/02 09:36:49;;;;;;;6.60;4.55;;;;;;;20.18;56.57;96289.00;4987832;28;20050;-77
2021/10/02 09:39:16;;;;;;;9.88;4.47;;;;;;;20.24;55.26;96286.69;4988137;28;20046;-76
2021/10/02 09:41:49;;;;;;;5.45;4.22;;;;;;;20.32;55.61;96291.09;4987542;28;20124;-76
2021/10/02 09:44:23;;;;;;;9.32;5.70;;;;;;;20.38;55.60;96292.34;4988317;28;20131;-76
2021/10/02 09:46:51;;;;;;;7.72;4.57;;;;;;;20.50;54.88;96289.28;4987518;28;20054;-76
2021/10/02 09:49:17;;;;;;;11.15;5.75;;;;;;;20.47;53.47;96289.28;4987494;28;20046;-77
2021/10/02 09:51:46;;;;;;;10.13;5.43;;;;;;;20.42;55.10;96287.63;4988606;28;20060;-76
2021/10/02 09:54:37;;;;;;;12.02;6.05;;;;;;;20.42;55.25;96286.84;4987179;28;20135;-77
2021/10/02 09:57:14;;;;;;;10.30;5.07;;;;;;;20.51;54.79;96285.34;4987875;28;20127;-76
2021/10/02 09:59:40;;;;;;;14.07;5.60;;;;;;;20.60;54.33;96282.25;4987509;28;20041;-76
2021/10/02 10:02:15;;;;;;;11.23;5.60;;;;;;;20.63;53.68;96284.25;4988162;28;20056;-76
2021/10/02 10:04:49;;;;;;;9.27;4.93;;;;;;;20.72;55.13;96270.84;4987253;28;20047;-76
2021/10/02 10:07:16;;;;;;;13.30;6.07;;;;;;;20.85;53.61;96277.66;4987716;28;20050;-76
2021/10/02 10:09:42;;;;;;;9.55;5.47;;;;;;;20.79;52.79;96276.44;4987586;28;20058;-76
2021/10/02 10:12:09;;;;;;;10.00;6.03;;;;;;;20.71;53.33;96276.78;4987294;28;20065;-76
2021/10/02 10:14:37;;;;;;;9.13;5.10;;;;;;;20.61;52.79;96267.22;4987650;28;20062;-76
2021/10/02 10:17:08;;;;;;;11.80;5.35;;;;;;;20.64;54.94;96265.69;4986830;28;20057;-76
2021/10/02 10:19:35;;;;;;;9.13;5.20;;;;;;;20.72;53.70;96265.31;4987578;28;20065;-76
2021/10/02 10:22:07;;;;;;;9.27;5.30;;;;;;;20.73;53.05;96263.38;4986929;28;20449;-68
2021/10/02 10:24:34;;;;;;;10.00;5.43;;;;;;;20.71;54.01;96268.47;4987371;28;20091;-75
2021/10/02 10:27:01;;;;;;;9.95;5.82;;;;;;;20.78;54.17;96265.78;4987022;28;20646;-76
2021/10/02 10:29:37;;;;;;;10.27;5.97;;;;;;;20.87;52.33;96263.44;4987400;28;20050;-76
2021/10/02 10:32:06;;;;;;;10.85;5.80;;;;;;;20.92;53.87;96265.84;4986976;28;20058;-76
2021/10/02 10:34:37;;;;;;;10.63;6.15;;;;;;;21.01;54.52;96252.44;4987420;28;20046;-75
2021/10/02 10:37:05;;;;;;;10.80;5.82;;;;;;;21.04;53.83;96265.50;4987144;28;20054;-77
2021/10/02 10:39:33;;;;;;;12.25;6.38;;;;;;;21.06;51.75;96260.38;4986696;28;20046;-77
2021/10/02 10:42:00;;;;;;;9.70;5.55;;;;;;;21.08;52.05;96257.22;4987634;28;20413;-77
2021/10/02 10:44:27;;;;;;;9.57;5.72;;;;;;;21.08;52.73;96259.97;4986334;28;20053;-76
2021/10/02 10:46:55;;;;;;;10.82;5.50;;;;;;;21.15;52.02;96259.22;4987625;28;20069;-76
2021/10/02 10:49:23;;;;;;;13.32;5.80;;;;;;;21.27;53.14;96253.34;4983266;28;20046;-76
2021/10/02 10:51:50;;;;;;;12.23;6.40;;;;;;;21.33;51.53;96257.34;4987276;28;20054;-76
2021/10/02 10:54:19;;;;;;;11.13;5.90;;;;;;;21.24;51.82;96246.59;4986502;28;20050;-76
2021/10/02 10:56:49;;;;;;;11.80;6.30;;;;;;;21.28;52.70;96244.63;4986604;28;20050;-76
2021/10/02 10:59:18;;;;;;;12.25;5.88;;;;;;;21.31;51.23;96243.09;4986777;28;20584;-76
2021/10/02 11:01:46;;;;;;;10.65;5.65;;;;;;;21.30;51.41;96236.00;4986392;28;20084;-76
2021/10/02 11:04:35;;;;;;;10.48;5.53;;;;;;;21.34;50.28;96231.22;4987133;28;20729;-76
2021/10/02 11:07:03;;;;;;;9.25;5.53;;;;;;;21.28;49.70;96232.75;4985919;28;20427;-75
2021/10/02 11:09:38;;;;;;;10.27;5.68;;;;;;;21.27;50.45;96218.13;4987349;28;20054;-76
2021/10/02 11:12:06;;;;;;;10.70;5.55;;;;;;;21.23;50.92;96209.00;4986170;28;20057;-77
2021/10/02 11:14:59;;;;;;;10.27;6.15;;;;;;;21.24;52.48;96215.34;4986840;28;20541;-76
2021/10/02 11:17:35;;;;;;;9.40;5.75;;;;;;;21.27;51.84;96209.03;4986664;28;20750;-76
2021/10/02 11:20:29;;;;;;;10.07;5.93;;;;;;;21.32;51.78;96212.25;4985759;28;20390;-72
2021/10/02 11:23:33;;;;;;;11.88;5.88;;;;;;;21.36;51.91;96203.94;4987359;28;20099;-75
2021/10/02 11:26:18;;;;;;;9.35;5.15;;;;;;;21.37;52.13;96208.31;4986799;28;20412;-76
2021/10/02 11:28:49;;;;;;;7.15;4.82;;;;;;;21.40;49.63;96206.72;4986948;28;20042;-76
2021/10/02 11:31:19;;;;;;;11.57;5.60;;;;;;;21.51;50.50;96196.47;4986503;28;20054;-78
2021/10/02 11:33:47;;;;;;;8.70;5.47;;;;;;;21.58;51.05;96186.19;4986791;28;20050;-75
2021/10/02 11:36:44;;;;;;;9.43;5.82;;;;;;;21.63;50.98;96185.00;4984881;28;20508;-78
2021/10/02 11:39:18;;;;;;;7.53;4.70;;;;;;;21.69;48.54;96180.66;4986376;28;20061;-76
2021/10/02 11:41:47;;;;;;;9.90;5.30;;;;;;;21.74;48.37;96187.78;4985736;28;20112;-75
2021/10/02 11:44:21;;;;;;;6.22;4.20;;;;;;;21.76;48.10;96174.31;4986641;28;20058;-75
2021/10/02 11:46:48;;;;;;;5.20;3.92;;;;;;;21.80;48.42;96177.88;4983376;28;20528;-75
2021/10/02 11:49:16;;;;;;;5.85;3.95;;;;;;;21.91;50.17;96164.81;4972487;28;21346;-75
2021/10/02 11:52:11;;;;;;;8.82;4.55;;;;;;;21.92;47.63;96166.38;4985865;28;20054;-75
2021/10/02 11:54:39;;;;;;;10.43;5.28;;;;;;;21.90;49.58;96168.78;4986005;28;20050;-78
2021/10/02 11:57:11;;;;;;;9.00;5.30;;;;;;;21.97;47.32;96165.22;4985850;28;20077;-77
2021/10/02 11:59:42;;;;;;;8.55;5.20;;;;;;;22.12;47.26;96170.38;4985615;28;20050;-78
2021/10/02 12:02:09;;;;;;;10.05;5.38;;;;;;;22.18;45.44;96167.19;4976882;28;20603;-77
2021/10/02 12:04:36;;;;;;;8.95;4.20;;;;;;;22.21;45.47;96160.88;4966010;28;20051;-78
2021/10/02 12:07:04;;;;;;;6.95;4.40;;;;;;;22.32;46.60;96150.53;4966810;28;20062;-77
2021/10/02 12:09:30;;;;;;;8.82;4.68;;;;;;;22.34;46.26;96160.06;4965759;28;20054;-78
2021/10/02 12:11:58;;;;;;;7.53;4.93;;;;;;;22.40;46.20;96146.56;4966660;28;20062;-77
2021/10/02 12:14:26;;;;;;;8.38;4.68;;;;;;;22.56;47.38;96146.94;4965936;28;20047;-77
2021/10/02 12:16:54;;;;;;;9.13;4.75;;;;;;;22.66;45.69;96140.56;4966474;28;20053;-77
2021/10/02 12:19:21;;;;;;;8.43;5.05;;;;;;;22.71;46.33;96138.53;4969691;28;20050;-78
2021/10/02 12:21:50;;;;;;;10.32;5.13;;;;;;;22.81;46.88;96132.16;4985460;28;20054;-75
2021/10/02 12:24:21;;;;;;;7.63;4.50;;;;;;;22.97;45.76;96135.31;4985714;28;20082;-76
2021/10/02 12:26:51;;;;;;;7.28;4.40;;;;;;;23.08;45.96;96124.94;4985400;28;20054;-76
2021/10/02 12:29:20;;;;;;;8.73;5.03;;;;;;;23.14;44.79;96120.53;4985470;28;20053;-76